createdAt,value
2019-03-22T00:01:52.799Z,47.37
2019-03-22T00:04:19.619Z,47.47
2019-03-22T00:06:45.878Z,48.17
2019-03-22T00:09:12.246Z,48.90
2019-03-22T00:11:38.576Z,47.53
2019-03-22T00:14:04.914Z,47.30
2019-03-22T00:16:31.245Z,51.93
2019-03-22T00:18:57.528Z,49.77
2019-03-22T00:21:23.897Z,47.80
2019-03-22T00:23:50.124Z,54.33
2019-03-22T00:26:16.415Z,48.67
2019-03-22T00:28:42.790Z,49.63
2019-03-22T00:31:09.119Z,50.10
2019-03-22T00:33:35.653Z,50.03
2019-03-22T00:36:01.982Z,54.90
2019-03-22T00:38:28.316Z,55.57
2019-03-22T00:40:54.641Z,56.83
2019-03-22T00:43:20.852Z,58.07
2019-03-22T00:45:47.147Z,54.37
2019-03-22T00:48:13.532Z,56.07
2019-03-22T00:50:39.757Z,50.63
2019-03-22T00:53:06.042Z,52.13
2019-03-22T00:55:52.210Z,55.10
2019-03-22T00:58:18.516Z,53.43
2019-03-22T01:00:45.261Z,54.77
2019-03-22T01:03:11.749Z,53.03
2019-03-22T01:05:38.119Z,56.63
2019-03-22T01:08:04.761Z,47.83
2019-03-22T01:10:30.983Z,51.17
2019-03-22T01:12:57.315Z,52.50
2019-03-22T01:15:23.574Z,59.27
2019-03-22T01:17:49.872Z,58.80
2019-03-22T01:20:16.205Z,59.70
2019-03-22T01:22:42.533Z,59.00
2019-03-22T01:25:10.064Z,58.50
2019-03-22T01:27:40.856Z,56.93
2019-03-22T01:30:17.819Z,57.27
2019-03-22T01:32:44.482Z,55.27
2019-03-22T01:35:12.004Z,55.43
2019-03-22T01:37:38.332Z,66.70
2019-03-22T01:40:07.121Z,59.17
2019-03-22T01:42:33.861Z,59.23
2019-03-22T01:45:00.415Z,60.30
2019-03-22T01:47:26.829Z,61.83
2019-03-22T01:49:53.035Z,60.87
2019-03-22T01:52:19.322Z,66.87
2019-03-22T01:54:45.633Z,57.53
2019-03-22T01:57:12.163Z,61.13
2019-03-22T01:59:38.804Z,53.17
2019-03-22T02:02:05.086Z,52.90
2019-03-22T02:04:31.448Z,53.63
2019-03-22T02:06:57.780Z,58.13
2019-03-22T02:09:24.432Z,61.97
2019-03-22T02:11:50.741Z,52.50
2019-03-22T02:14:17.043Z,53.87
2019-03-22T02:16:43.407Z,56.23
2019-03-22T02:19:09.955Z,59.93
2019-03-22T02:21:36.380Z,46.40
2019-03-22T02:24:03.113Z,47.87
2019-03-22T02:26:29.444Z,47.60
2019-03-22T02:28:55.776Z,44.80
2019-03-22T02:31:22.110Z,46.67
2019-03-22T02:33:48.396Z,59.33
2019-03-22T02:36:14.769Z,49.20
2019-03-22T02:38:41.576Z,47.03
2019-03-22T02:41:07.830Z,51.23
2019-03-22T02:43:34.499Z,44.63
2019-03-22T02:46:00.925Z,50.73
2019-03-22T02:48:27.567Z,51.73
2019-03-22T02:50:56.170Z,44.77
2019-03-22T02:53:23.791Z,49.27
2019-03-22T02:55:50.104Z,46.40
2019-03-22T02:58:21.044Z,48.47
2019-03-22T03:00:44.442Z,48.67
2019-03-22T03:03:10.846Z,50.57
2019-03-22T03:05:37.173Z,53.33
2019-03-22T03:08:03.515Z,55.57
2019-03-22T03:10:29.842Z,50.83
2019-03-22T03:12:56.485Z,46.87
2019-03-22T03:15:22.798Z,55.57
2019-03-22T03:17:49.075Z,57.50
2019-03-22T03:20:16.800Z,58.13
2019-03-22T03:22:43.230Z,53.43
2019-03-22T03:25:09.867Z,44.93
2019-03-22T03:27:36.727Z,45.27
2019-03-22T03:30:05.805Z,49.40
2019-03-22T03:32:32.134Z,50.30
2019-03-22T03:34:58.481Z,50.37
2019-03-22T03:37:24.896Z,50.17
2019-03-22T03:39:51.225Z,54.70
2019-03-22T03:42:17.493Z,52.33
2019-03-22T03:44:44.029Z,54.83
2019-03-22T03:47:10.751Z,56.43
2019-03-22T03:49:37.423Z,59.70
2019-03-22T03:52:03.805Z,52.17
2019-03-22T03:54:30.132Z,50.77
2019-03-22T03:56:56.563Z,48.80
2019-03-22T03:59:22.830Z,65.87
2019-03-22T04:01:49.106Z,46.67
2019-03-22T04:04:15.454Z,43.13
2019-03-22T04:06:43.689Z,45.43
2019-03-22T04:09:10.057Z,47.13
2019-03-22T04:11:36.395Z,47.60
2019-03-22T04:14:03.103Z,60.07
2019-03-22T04:16:29.460Z,52.27
2019-03-22T04:18:55.687Z,47.57
2019-03-22T04:21:22.017Z,55.87
2019-03-22T04:23:48.450Z,54.03
2019-03-22T04:26:14.777Z,55.73
2019-03-22T04:28:41.214Z,59.70
2019-03-22T04:31:07.528Z,50.90
2019-03-22T04:33:33.872Z,61.60
2019-03-22T04:36:00.113Z,61.00
2019-03-22T04:38:26.538Z,48.10
2019-03-22T04:40:52.847Z,51.47
2019-03-22T04:43:19.302Z,47.67
2019-03-22T04:45:46.799Z,53.17
2019-03-22T04:48:19.619Z,48.70
2019-03-22T04:50:47.882Z,60.97
2019-03-22T04:53:17.403Z,57.03
2019-03-22T04:55:46.609Z,56.43
2019-03-22T04:58:13.462Z,54.53
2019-03-22T05:00:41.122Z,52.20
2019-03-22T05:03:08.620Z,59.27
2019-03-22T05:05:35.116Z,60.00
2019-03-22T05:08:03.512Z,57.53
2019-03-22T05:10:30.253Z,59.17
2019-03-22T05:12:58.845Z,55.77
2019-03-22T05:15:25.657Z,59.83
2019-03-22T05:17:52.603Z,68.00
2019-03-22T05:20:20.697Z,68.07
2019-03-22T05:22:48.253Z,58.73
2019-03-22T05:25:17.243Z,64.73
2019-03-22T05:27:45.191Z,57.87
2019-03-22T05:30:47.608Z,60.53
2019-03-22T05:33:14.409Z,53.93
2019-03-22T05:35:40.638Z,83.00
2019-03-22T05:38:06.969Z,75.90
2019-03-22T05:40:33.296Z,62.13
2019-03-22T05:42:59.628Z,55.03
2019-03-22T05:45:25.967Z,76.80
2019-03-22T05:47:52.278Z,68.63
2019-03-22T05:50:18.586Z,59.03
2019-03-22T05:52:44.882Z,64.07
2019-03-22T05:55:11.504Z,61.03
2019-03-22T05:57:37.814Z,65.90
2019-03-22T06:00:06.010Z,67.23
2019-03-22T06:02:32.480Z,69.57
2019-03-22T06:04:58.693Z,62.67
2019-03-22T06:07:25.083Z,68.37
2019-03-22T06:09:51.513Z,78.60
2019-03-22T06:12:17.945Z,65.47
2019-03-22T06:14:44.264Z,72.73
2019-03-22T06:17:10.606Z,63.53
2019-03-22T06:19:37.045Z,61.03
2019-03-22T06:22:03.485Z,61.73
2019-03-22T06:24:29.790Z,100.27
2019-03-22T06:26:56.370Z,77.40
2019-03-22T06:29:22.655Z,91.40
2019-03-22T06:31:49.106Z,66.83
2019-03-22T06:34:15.433Z,80.07
2019-03-22T06:36:41.679Z,76.77
2019-03-22T06:39:07.988Z,70.23
2019-03-22T06:41:34.302Z,76.87
2019-03-22T06:44:00.649Z,75.40
2019-03-22T06:46:26.980Z,67.47
2019-03-22T06:48:53.525Z,83.07
2019-03-22T06:51:19.949Z,72.40
2019-03-22T06:53:46.276Z,75.27
2019-03-22T06:56:13.855Z,68.37
2019-03-22T06:58:43.343Z,78.30
2019-03-22T07:01:09.675Z,78.70
2019-03-22T07:03:35.927Z,75.13
2019-03-22T07:06:02.437Z,64.43
2019-03-22T07:08:29.096Z,86.63
2019-03-22T07:10:55.512Z,100.23
2019-03-22T07:13:21.732Z,70.30
2019-03-22T07:15:48.029Z,84.17
2019-03-22T07:18:14.493Z,69.20
2019-03-22T07:20:40.827Z,70.13
2019-03-22T07:23:07.876Z,78.43
2019-03-22T07:25:34.626Z,71.73
2019-03-22T07:28:00.918Z,68.17
2019-03-22T07:30:27.275Z,84.90
2019-03-22T07:32:53.537Z,72.43
2019-03-22T07:35:19.935Z,67.17
2019-03-22T07:37:46.154Z,66.50
2019-03-22T07:40:12.966Z,80.77
2019-03-22T07:42:39.657Z,63.37
2019-03-22T07:45:08.531Z,62.10
2019-03-22T07:47:34.864Z,65.90
2019-03-22T07:50:03.082Z,68.00
2019-03-22T07:52:29.406Z,65.13
2019-03-22T07:54:57.625Z,66.80
2019-03-22T07:57:23.871Z,63.00
2019-03-22T07:59:50.201Z,69.93
2019-03-22T08:02:16.428Z,66.13
2019-03-22T08:04:42.769Z,66.20
2019-03-22T08:07:09.051Z,66.77
2019-03-22T08:09:35.434Z,69.10
2019-03-22T08:12:01.757Z,65.97
2019-03-22T08:14:28.097Z,59.73
2019-03-22T08:16:54.512Z,65.73
2019-03-22T08:19:20.844Z,79.40
2019-03-22T08:21:47.239Z,63.87
2019-03-22T08:24:13.528Z,63.50
2019-03-22T08:26:39.939Z,69.50
2019-03-22T08:29:06.262Z,67.27
2019-03-22T08:31:32.591Z,61.43
2019-03-22T08:33:58.958Z,70.67
2019-03-22T08:36:25.361Z,71.20
2019-03-22T08:38:51.692Z,65.13
2019-03-22T08:41:18.025Z,68.47
2019-03-22T08:43:44.357Z,67.43
2019-03-22T08:46:10.796Z,62.10
2019-03-22T08:48:37.117Z,63.07
2019-03-22T08:51:03.449Z,63.87
2019-03-22T08:53:29.721Z,63.90
2019-03-22T08:55:56.135Z,63.63
2019-03-22T08:58:22.552Z,66.60
2019-03-22T09:00:57.509Z,68.90
2019-03-22T09:03:17.288Z,67.73
2019-03-22T09:05:43.684Z,63.97
2019-03-22T09:08:10.118Z,68.70
2019-03-22T09:10:36.551Z,59.03
2019-03-22T09:13:02.984Z,59.80
2019-03-22T09:15:40.631Z,59.20
2019-03-22T09:17:57.495Z,61.77
2019-03-22T09:20:23.788Z,57.50
2019-03-22T09:22:50.148Z,56.23
2019-03-22T09:25:16.381Z,53.20
2019-03-22T09:27:42.710Z,55.43
2019-03-22T09:30:11.687Z,53.83
2019-03-22T09:32:38.009Z,49.20
2019-03-22T09:35:05.018Z,56.07
2019-03-22T09:37:31.406Z,53.10
2019-03-22T09:39:57.736Z,53.37
2019-03-22T09:42:24.078Z,50.07
2019-03-22T09:44:50.435Z,52.63
2019-03-22T09:47:17.167Z,51.90
2019-03-22T09:49:43.570Z,52.53
2019-03-22T09:52:09.901Z,52.63
2019-03-22T09:54:36.364Z,49.87
2019-03-22T09:57:02.764Z,46.20
2019-03-22T09:59:29.096Z,46.90
2019-03-22T10:01:55.427Z,46.90
2019-03-22T10:04:21.727Z,46.87
2019-03-22T10:06:48.090Z,46.30
2019-03-22T10:09:14.525Z,45.43
2019-03-22T10:11:40.844Z,48.27
2019-03-22T10:14:07.307Z,44.33
2019-03-22T10:16:33.734Z,46.27
2019-03-22T10:19:00.073Z,45.67
2019-03-22T10:21:26.395Z,44.33
2019-03-22T10:23:52.821Z,39.90
2019-03-22T10:26:21.009Z,37.13
2019-03-22T10:28:47.244Z,31.93
2019-03-22T10:31:13.562Z,30.97
2019-03-22T10:33:39.839Z,29.77
2019-03-22T10:36:06.306Z,27.87
2019-03-22T10:38:32.685Z,28.80
2019-03-22T10:40:59.075Z,28.77
2019-03-22T10:43:25.667Z,23.30
2019-03-22T10:45:52.069Z,23.83
2019-03-22T10:48:18.704Z,23.90
2019-03-22T10:50:45.167Z,22.13
2019-03-22T10:53:11.929Z,22.53
2019-03-22T10:55:38.246Z,25.40
2019-03-22T10:58:04.610Z,20.43
2019-03-22T11:00:31.040Z,22.70
2019-03-22T11:02:57.283Z,20.53
2019-03-22T11:05:25.510Z,19.00
2019-03-22T11:07:51.772Z,20.00
2019-03-22T11:10:17.999Z,20.03
2019-03-22T11:12:44.330Z,19.03
2019-03-22T11:15:11.965Z,18.50
2019-03-22T11:17:38.304Z,24.37
2019-03-22T11:20:16.045Z,19.03
2019-03-22T11:22:42.554Z,20.00
2019-03-22T11:25:09.161Z,18.30
2019-03-22T11:27:35.837Z,16.30
2019-03-22T11:30:05.560Z,17.13
2019-03-22T11:32:33.442Z,17.53
2019-03-22T11:35:00.441Z,22.37
2019-03-22T11:37:27.140Z,17.93
2019-03-22T11:39:53.401Z,17.60
2019-03-22T11:42:19.751Z,16.90
2019-03-22T11:44:46.080Z,17.97
2019-03-22T11:47:12.411Z,18.97
2019-03-22T11:49:38.686Z,19.33
2019-03-22T11:52:04.993Z,16.83
2019-03-22T11:54:31.628Z,15.23
2019-03-22T11:56:58.450Z,16.03
2019-03-22T11:59:24.784Z,15.20
2019-03-22T12:01:51.110Z,17.30
2019-03-22T12:04:17.326Z,15.10
2019-03-22T12:06:43.643Z,17.40
2019-03-22T12:09:10.004Z,20.10
2019-03-22T12:11:36.327Z,18.10
2019-03-22T12:14:03.279Z,17.97
2019-03-22T12:16:29.949Z,18.07
2019-03-22T12:18:56.559Z,13.97
2019-03-22T12:21:22.980Z,17.23
2019-03-22T12:23:49.309Z,15.53
2019-03-22T12:26:15.639Z,15.47
2019-03-22T12:28:41.971Z,10.50
2019-03-22T12:31:08.267Z,14.63
2019-03-22T12:33:34.565Z,13.70
2019-03-22T12:36:00.961Z,15.17
2019-03-22T12:38:27.394Z,16.97
2019-03-22T12:40:53.632Z,17.00
2019-03-22T12:43:19.952Z,15.33
2019-03-22T12:45:46.612Z,15.40
2019-03-22T12:48:13.023Z,17.20
2019-03-22T12:50:41.263Z,16.20
2019-03-22T12:53:07.474Z,14.53
2019-03-22T12:55:34.080Z,16.27
2019-03-22T12:58:00.495Z,14.90
2019-03-22T13:00:26.825Z,16.23
2019-03-22T13:02:53.565Z,15.70
2019-03-22T13:05:20.600Z,15.13
2019-03-22T13:07:46.991Z,14.83
2019-03-22T13:10:16.796Z,12.10
2019-03-22T13:12:43.112Z,17.00
2019-03-22T13:15:09.621Z,13.40
2019-03-22T13:17:35.952Z,12.47
2019-03-22T13:20:09.209Z,14.03
2019-03-22T13:22:35.577Z,14.70
2019-03-22T13:25:02.110Z,18.37
2019-03-22T13:27:28.445Z,14.33
2019-03-22T13:29:55.773Z,15.47
2019-03-22T13:32:22.123Z,13.47
2019-03-22T13:34:48.671Z,12.43
2019-03-22T13:37:15.090Z,13.00
2019-03-22T13:39:41.741Z,12.77
2019-03-22T13:42:07.957Z,14.27
2019-03-22T13:44:34.613Z,14.60
2019-03-22T13:47:01.026Z,14.37
2019-03-22T13:49:27.340Z,13.30
2019-03-22T13:51:54.018Z,11.87
2019-03-22T13:54:20.355Z,13.57
2019-03-22T13:56:46.666Z,15.13
2019-03-22T13:59:13.090Z,11.57
2019-03-22T14:01:39.423Z,14.03
2019-03-22T14:04:05.805Z,11.67
2019-03-22T14:06:32.125Z,12.50
2019-03-22T14:08:58.423Z,12.37
2019-03-22T14:11:24.840Z,12.73
2019-03-22T14:13:51.391Z,13.33
2019-03-22T14:16:17.727Z,11.53
2019-03-22T14:18:44.144Z,11.10
2019-03-22T14:21:11.108Z,10.10
2019-03-22T14:23:37.524Z,8.47
2019-03-22T14:26:03.957Z,8.87
2019-03-22T14:28:30.388Z,10.40
2019-03-22T14:30:56.622Z,9.27
2019-03-22T14:33:23.047Z,6.87
2019-03-22T14:35:49.598Z,7.77
2019-03-22T14:38:16.023Z,8.40
2019-03-22T14:40:42.294Z,9.17
2019-03-22T14:43:08.592Z,11.93
2019-03-22T14:45:35.002Z,10.33
2019-03-22T14:48:01.287Z,8.13
2019-03-22T14:50:27.612Z,10.07
2019-03-22T14:52:53.993Z,8.53
2019-03-22T14:55:20.426Z,8.87
2019-03-22T14:57:50.129Z,9.93
2019-03-22T15:00:15.644Z,11.30
2019-03-22T15:02:41.980Z,11.90
2019-03-22T15:05:08.513Z,11.00
2019-03-22T15:07:34.798Z,12.40
2019-03-22T15:10:01.500Z,13.30
2019-03-22T15:12:30.809Z,12.23
2019-03-22T15:15:02.743Z,12.07
2019-03-22T15:17:30.906Z,13.97
2019-03-22T15:20:15.698Z,11.00
2019-03-22T15:23:00.480Z,12.27
2019-03-22T15:25:45.204Z,10.90
2019-03-22T15:28:22.249Z,16.97
2019-03-22T15:31:07.151Z,13.27
2019-03-22T15:33:41.299Z,11.33
2019-03-22T15:36:12.981Z,10.97
2019-03-22T15:38:41.247Z,9.10
2019-03-22T15:41:07.577Z,9.13
2019-03-22T15:43:33.887Z,9.23
2019-03-22T15:46:00.288Z,7.73
2019-03-22T15:48:26.689Z,8.07
2019-03-22T15:50:53.051Z,9.90
2019-03-22T15:53:19.381Z,10.23
2019-03-22T15:55:45.590Z,13.23
2019-03-22T15:58:11.939Z,9.43
2019-03-22T16:00:38.273Z,8.20
2019-03-22T16:03:04.908Z,8.53
2019-03-22T16:05:31.238Z,10.17
2019-03-22T16:07:57.519Z,9.13
2019-03-22T16:10:23.900Z,8.53
2019-03-22T16:12:50.128Z,8.30
2019-03-22T16:15:16.605Z,7.90
2019-03-22T16:17:42.899Z,10.10
2019-03-22T16:20:11.781Z,8.70
2019-03-22T16:22:38.131Z,7.93
2019-03-22T16:25:06.899Z,11.27
2019-03-22T16:27:33.150Z,8.07
2019-03-22T16:29:59.559Z,11.37
2019-03-22T16:32:25.890Z,9.43
2019-03-22T16:34:52.220Z,8.33
2019-03-22T16:37:18.489Z,10.33
2019-03-22T16:39:44.881Z,9.57
2019-03-22T16:42:11.091Z,8.93
2019-03-22T16:44:37.383Z,9.40
2019-03-22T16:47:04.087Z,11.50
2019-03-22T16:49:30.837Z,7.17
2019-03-22T16:51:57.251Z,9.50
2019-03-22T16:54:23.541Z,10.57
2019-03-22T16:56:50.131Z,9.43
2019-03-22T16:59:16.546Z,9.47
2019-03-22T17:01:42.776Z,7.77
2019-03-22T17:04:09.087Z,8.60
2019-03-22T17:06:35.385Z,7.93
2019-03-22T17:09:01.868Z,9.87
2019-03-22T17:11:28.350Z,7.27
2019-03-22T17:13:54.648Z,8.73
2019-03-22T17:16:20.960Z,8.10
2019-03-22T17:18:47.614Z,8.07
2019-03-22T17:21:13.899Z,11.90
2019-03-22T17:23:40.587Z,9.77
2019-03-22T17:26:07.798Z,10.20
2019-03-22T17:28:34.457Z,8.03
2019-03-22T17:31:00.712Z,8.00
2019-03-22T17:33:27.015Z,7.17
2019-03-22T17:35:53.554Z,9.20
2019-03-22T17:38:19.830Z,8.90
2019-03-22T17:40:46.246Z,8.80
2019-03-22T17:43:12.644Z,7.53
2019-03-22T17:45:38.868Z,8.00
2019-03-22T17:48:05.304Z,7.27
2019-03-22T17:50:31.601Z,7.43
2019-03-22T17:52:57.902Z,6.70
2019-03-22T17:55:24.203Z,8.77
2019-03-22T17:57:50.522Z,11.77
2019-03-22T18:00:19.885Z,6.00
2019-03-22T18:02:46.269Z,7.73
2019-03-22T18:05:12.802Z,7.70
2019-03-22T18:07:39.555Z,5.07
2019-03-22T18:10:07.768Z,6.20
2019-03-22T18:12:35.166Z,8.93
2019-03-22T18:15:01.681Z,6.67
2019-03-22T18:17:28.230Z,6.13
2019-03-22T18:19:54.921Z,6.50
2019-03-22T18:22:21.301Z,7.53
2019-03-22T18:24:47.941Z,8.53
2019-03-22T18:27:14.162Z,6.77
2019-03-22T18:29:40.601Z,6.70
2019-03-22T18:32:06.930Z,8.43
2019-03-22T18:34:34.576Z,6.07
2019-03-22T18:37:01.276Z,8.20
2019-03-22T18:41:58.704Z,7.10
2019-03-22T18:44:25.034Z,6.83
2019-03-22T18:46:51.364Z,5.63
2019-03-22T18:49:17.797Z,7.80
2019-03-22T18:51:44.052Z,5.30
2019-03-22T18:54:10.354Z,6.93
2019-03-22T18:56:36.965Z,8.80
2019-03-22T18:59:03.328Z,8.17
2019-03-22T19:01:29.569Z,7.43
2019-03-22T19:03:55.984Z,7.40
2019-03-22T19:06:22.276Z,6.90
2019-03-22T19:08:48.645Z,11.17
2019-03-22T19:11:15.179Z,14.40
2019-03-22T19:13:41.837Z,16.00
2019-03-22T19:16:08.251Z,14.40
2019-03-22T19:18:34.723Z,13.70
2019-03-22T19:21:02.056Z,15.33
2019-03-22T19:23:28.469Z,15.60
2019-03-22T19:25:54.785Z,22.37
2019-03-22T19:28:21.130Z,22.87
2019-03-22T19:30:47.460Z,17.37
2019-03-22T19:33:13.704Z,19.20
2019-03-22T19:35:40.650Z,17.07
2019-03-22T19:38:06.963Z,18.17
2019-03-22T19:40:33.295Z,15.60
2019-03-22T19:42:59.626Z,14.13
2019-03-22T19:45:25.972Z,16.33
2019-03-22T19:47:52.387Z,16.67
2019-03-22T19:50:18.681Z,15.00
2019-03-22T19:52:45.068Z,15.37
2019-03-22T19:55:11.995Z,15.03
2019-03-22T19:57:38.527Z,12.70
2019-03-22T20:00:07.930Z,14.03
2019-03-22T20:02:34.243Z,16.13
2019-03-22T20:05:04.619Z,16.53
2019-03-22T20:07:28.661Z,16.43
2019-03-22T20:09:54.992Z,19.90
2019-03-22T20:12:21.323Z,14.70
2019-03-22T20:14:47.654Z,16.50
2019-03-22T20:17:13.871Z,17.90
2019-03-22T20:19:40.167Z,16.37
2019-03-22T20:22:06.478Z,19.20
2019-03-22T20:24:32.874Z,20.33
2019-03-22T20:26:59.180Z,25.17
2019-03-22T20:29:25.533Z,25.40
2019-03-22T20:31:51.798Z,24.70
2019-03-22T20:34:18.195Z,25.97
2019-03-22T20:36:44.631Z,28.23
2019-03-22T20:39:10.906Z,23.17
2019-03-22T20:41:37.286Z,25.37
2019-03-22T20:44:03.620Z,27.57
2019-03-22T20:46:30.273Z,30.23
2019-03-22T20:48:56.576Z,28.73
2019-03-22T20:51:22.883Z,30.77
2019-03-22T20:53:49.172Z,26.90
2019-03-22T20:56:15.467Z,31.27
2019-03-22T20:58:41.803Z,33.40
2019-03-22T21:01:08.133Z,35.37
2019-03-22T21:03:34.393Z,31.03
2019-03-22T21:06:00.716Z,36.33
2019-03-22T21:08:27.022Z,35.27
2019-03-22T21:10:53.580Z,35.33
2019-03-22T21:13:19.990Z,34.73
2019-03-22T21:15:46.285Z,38.93
2019-03-22T21:18:12.650Z,39.60
2019-03-22T21:20:38.904Z,34.93
2019-03-22T21:23:05.311Z,31.40
2019-03-22T21:25:31.867Z,35.23
2019-03-22T21:27:58.279Z,37.80
2019-03-22T21:30:24.932Z,35.10
2019-03-22T21:32:51.350Z,36.87
2019-03-22T21:45:06.075Z,38.90
2019-03-22T21:47:32.357Z,39.80
2019-03-22T21:49:58.739Z,39.97
2019-03-22T21:52:25.021Z,41.50
2019-03-22T21:54:51.394Z,42.40
2019-03-22T21:57:17.724Z,42.33
2019-03-22T21:59:45.210Z,43.07
2019-03-22T22:02:11.527Z,43.07
2019-03-22T22:04:38.167Z,46.60
2019-03-22T22:07:04.480Z,38.70
2019-03-22T22:09:31.221Z,42.63
2019-03-22T22:11:57.776Z,42.50
2019-03-22T22:14:24.190Z,47.37
2019-03-22T22:16:50.841Z,43.97
2019-03-22T22:19:17.586Z,47.77
2019-03-22T22:21:44.002Z,50.70
2019-03-22T22:24:10.334Z,49.67
2019-03-22T22:26:36.865Z,51.67
2019-03-22T22:29:03.111Z,51.03
2019-03-22T22:31:29.522Z,49.80
2019-03-22T22:33:55.955Z,64.97
2019-03-22T22:36:22.592Z,62.50
2019-03-22T22:41:15.253Z,66.10
2019-03-22T22:43:41.689Z,60.03
2019-03-22T22:46:08.121Z,58.00
2019-03-22T22:48:34.457Z,62.50
2019-03-22T22:51:00.782Z,67.13
2019-03-22T22:53:27.333Z,65.83
2019-03-22T22:55:53.968Z,65.53
2019-03-22T22:58:20.595Z,68.47
2019-03-22T23:00:47.535Z,63.17
2019-03-22T23:03:13.966Z,66.33
2019-03-22T23:05:40.260Z,66.20
2019-03-22T23:08:07.057Z,63.53
2019-03-22T23:10:33.475Z,72.40
2019-03-22T23:12:59.902Z,74.47
2019-03-22T23:15:26.252Z,64.57
2019-03-22T23:17:52.596Z,72.43
2019-03-22T23:20:18.995Z,76.63
2019-03-22T23:22:48.603Z,77.03
2019-03-22T23:25:14.936Z,77.40
2019-03-22T23:27:41.263Z,81.47
2019-03-22T23:30:10.171Z,83.87
2019-03-22T23:32:36.863Z,86.07
2019-03-22T23:35:05.286Z,89.13
2019-03-22T23:37:31.684Z,102.90
2019-03-22T23:39:58.039Z,98.63
2019-03-22T23:42:24.298Z,106.67
2019-03-22T23:44:50.597Z,107.77
2019-03-22T23:47:17.031Z,106.90
2019-03-22T23:49:43.359Z,108.37
2019-03-22T23:52:09.686Z,118.40
2019-03-22T23:54:36.016Z,119.90
2019-03-22T23:57:02.419Z,122.60
2019-03-22T23:59:28.782Z,126.57
